sensor_id;sensor_type;location;lat;lon;timestamp;pressure;altitude;pressure_sealevel;temperature;humidity
21826;BME280;11075;47.944;11.776;2022-08-20T00:02:08;94584.97;;;20.48;31.03
21826;BME280;11075;47.944;11.776;2022-08-20T00:04:35;94588.41;;;21.35;30.16
21826;BME280;11075;47.944;11.776;2022-08-20T00:07:05;94599.47;;;23.48;27.50
21826;BME280;11075;47.944;11.776;2022-08-20T00:09:32;94576.13;;;20.75;30.92
21826;BME280;11075;47.944;11.776;2022-08-20T00:12:05;94591.47;;;21.40;30.01
21826;BME280;11075;47.944;11.776;2022-08-20T00:14:33;94583.53;;;20.78;31.06
21826;BME280;11075;47.944;11.776;2022-08-20T00:17:01;94576.13;;;20.33;31.07
21826;BME280;11075;47.944;11.776;2022-08-20T00:19:28;94600.09;;;21.05;30.49
21826;BME280;11075;47.944;11.776;2022-08-20T00:21:55;94587.81;;;20.79;30.49
21826;BME280;11075;47.944;11.776;2022-08-20T00:24:24;94581.16;;;21.17;30.22
21826;BME280;11075;47.944;11.776;2022-08-20T00:26:51;94561.38;;;20.17;31.58
21826;BME280;11075;47.944;11.776;2022-08-20T00:29:19;94603.59;;;22.00;29.29
21826;BME280;11075;47.944;11.776;2022-08-20T00:31:48;94577.72;;;20.72;30.46
21826;BME280;11075;47.944;11.776;2022-08-20T00:34:16;94566.13;;;20.09;31.56
21826;BME280;11075;47.944;11.776;2022-08-20T00:36:43;94597.41;;;21.35;30.04
21826;BME280;11075;47.944;11.776;2022-08-20T00:39:10;94590.06;;;20.91;30.91
21826;BME280;11075;47.944;11.776;2022-08-20T00:41:36;94583.97;;;20.73;31.01
21826;BME280;11075;47.944;11.776;2022-08-20T00:44:16;94577.41;;;21.04;30.13
21826;BME280;11075;47.944;11.776;2022-08-20T00:46:45;94595.22;;;22.38;28.47
21826;BME280;11075;47.944;11.776;2022-08-20T00:49:18;94603.63;;;21.39;30.11
21826;BME280;11075;47.944;11.776;2022-08-20T00:54:27;94592.16;;;20.28;31.83
21826;BME280;11075;47.944;11.776;2022-08-20T00:57:06;94604.09;;;23.12;27.65
21826;BME280;11075;47.944;11.776;2022-08-20T00:59:36;94579.38;;;20.62;30.91
21826;BME280;11075;47.944;11.776;2022-08-20T01:02:09;94589.03;;;21.76;29.43
21826;BME280;11075;47.944;11.776;2022-08-20T01:04:37;94572.66;;;20.22;31.70
21826;BME280;11075;47.944;11.776;2022-08-20T01:07:05;94597.47;;;22.66;28.37
21826;BME280;11075;47.944;11.776;2022-08-20T01:09:35;94600.84;;;22.27;29.06
21826;BME280;11075;47.944;11.776;2022-08-20T01:12:23;94594.09;;;20.76;30.51
21826;BME280;11075;47.944;11.776;2022-08-20T01:14:50;94598.59;;;20.55;31.19
21826;BME280;11075;47.944;11.776;2022-08-20T01:17:20;94609.47;;;22.29;29.12
21826;BME280;11075;47.944;11.776;2022-08-20T01:19:56;94607.88;;;21.44;30.04
21826;BME280;11075;47.944;11.776;2022-08-20T01:22:44;94597.94;;;19.78;32.44
21826;BME280;11075;47.944;11.776;2022-08-20T01:28:03;94605.72;;;21.89;29.64
21826;BME280;11075;47.944;11.776;2022-08-20T01:30:31;94601.69;;;22.71;28.37
21826;BME280;11075;47.944;11.776;2022-08-20T01:32:59;94583.75;;;21.32;30.23
21826;BME280;11075;47.944;11.776;2022-08-20T01:35:27;94604.22;;;22.11;29.37
21826;BME280;11075;47.944;11.776;2022-08-20T01:37:54;94607.78;;;21.81;29.70
21826;BME280;11075;47.944;11.776;2022-08-20T01:40:43;94601.13;;;22.60;29.13
21826;BME280;11075;47.944;11.776;2022-08-20T01:43:14;94593.50;;;21.93;29.24
21826;BME280;11075;47.944;11.776;2022-08-20T01:45:43;94584.03;;;21.98;29.24
21826;BME280;11075;47.944;11.776;2022-08-20T01:48:12;94603.56;;;22.77;28.42
21826;BME280;11075;47.944;11.776;2022-08-20T01:50:44;94591.69;;;21.53;30.49
21826;BME280;11075;47.944;11.776;2022-08-20T01:53:27;94577.84;;;20.99;30.41
21826;BME280;11075;47.944;11.776;2022-08-20T01:55:55;94617.00;;;22.48;28.86
21826;BME280;11075;47.944;11.776;2022-08-20T01:58:22;94611.69;;;23.28;28.19
21826;BME280;11075;47.944;11.776;2022-08-20T02:00:49;94607.03;;;20.72;31.81
21826;BME280;11075;47.944;11.776;2022-08-20T02:03:16;94614.50;;;21.09;30.62
21826;BME280;11075;47.944;11.776;2022-08-20T02:05:43;94588.34;;;21.04;30.28
21826;BME280;11075;47.944;11.776;2022-08-20T02:08:10;94597.66;;;21.10;30.83
21826;BME280;11075;47.944;11.776;2022-08-20T02:10:37;94613.13;;;21.27;30.67
21826;BME280;11075;47.944;11.776;2022-08-20T02:13:04;94621.16;;;22.33;29.16
21826;BME280;11075;47.944;11.776;2022-08-20T02:15:31;94616.03;;;23.85;27.54
21826;BME280;11075;47.944;11.776;2022-08-20T02:18:08;94603.44;;;21.53;29.82
21826;BME280;11075;47.944;11.776;2022-08-20T02:20:36;94625.34;;;21.19;31.08
21826;BME280;11075;47.944;11.776;2022-08-20T02:23:08;94619.25;;;22.53;28.81
21826;BME280;11075;47.944;11.776;2022-08-20T02:25:37;94590.09;;;21.55;30.55
21826;BME280;11075;47.944;11.776;2022-08-20T02:28:08;94619.19;;;22.34;28.88
21826;BME280;11075;47.944;11.776;2022-08-20T02:30:40;94624.91;;;21.24;30.41
21826;BME280;11075;47.944;11.776;2022-08-20T02:33:10;94617.94;;;21.84;29.97
21826;BME280;11075;47.944;11.776;2022-08-20T02:35:39;94620.47;;;22.76;28.89
21826;BME280;11075;47.944;11.776;2022-08-20T02:38:06;94613.44;;;21.98;29.78
21826;BME280;11075;47.944;11.776;2022-08-20T02:40:33;94614.78;;;22.86;28.65
21826;BME280;11075;47.944;11.776;2022-08-20T02:43:03;94624.69;;;22.34;29.37
21826;BME280;11075;47.944;11.776;2022-08-20T02:45:32;94629.25;;;23.10;28.26
21826;BME280;11075;47.944;11.776;2022-08-20T02:48:15;94626.41;;;23.37;27.69
21826;BME280;11075;47.944;11.776;2022-08-20T02:50:51;94626.47;;;23.54;27.24
21826;BME280;11075;47.944;11.776;2022-08-20T02:53:18;94604.41;;;21.40;30.33
21826;BME280;11075;47.944;11.776;2022-08-20T02:55:46;94610.59;;;21.44;30.26
21826;BME280;11075;47.944;11.776;2022-08-20T02:58:13;94617.56;;;23.06;28.35
21826;BME280;11075;47.944;11.776;2022-08-20T03:00:40;94625.31;;;24.27;26.67
21826;BME280;11075;47.944;11.776;2022-08-20T03:03:09;94611.91;;;23.93;27.27
21826;BME280;11075;47.944;11.776;2022-08-20T03:05:38;94616.19;;;21.67;30.21
21826;BME280;11075;47.944;11.776;2022-08-20T03:08:08;94620.91;;;23.37;27.71
21826;BME280;11075;47.944;11.776;2022-08-20T03:10:36;94592.53;;;21.80;30.12
21826;BME280;11075;47.944;11.776;2022-08-20T03:13:04;94602.50;;;22.48;29.24
21826;BME280;11075;47.944;11.776;2022-08-20T03:15:32;94609.88;;;21.40;30.36
21826;BME280;11075;47.944;11.776;2022-08-20T03:17:59;94617.81;;;23.35;27.59
21826;BME280;11075;47.944;11.776;2022-08-20T03:20:27;94595.28;;;21.80;30.16
21826;BME280;11075;47.944;11.776;2022-08-20T03:22:55;94618.53;;;22.96;28.33
21826;BME280;11075;47.944;11.776;2022-08-20T03:25:23;94603.53;;;21.12;30.32
21826;BME280;11075;47.944;11.776;2022-08-20T03:27:52;94606.78;;;21.38;29.93
21826;BME280;11075;47.944;11.776;2022-08-20T03:30:21;94641.22;;;24.52;26.56
21826;BME280;11075;47.944;11.776;2022-08-20T03:32:49;94618.34;;;22.60;28.68
21826;BME280;11075;47.944;11.776;2022-08-20T03:35:17;94612.44;;;22.38;28.84
21826;BME280;11075;47.944;11.776;2022-08-20T03:37:45;94627.06;;;23.02;27.70
21826;BME280;11075;47.944;11.776;2022-08-20T03:40:22;94649.81;;;22.55;29.27
21826;BME280;11075;47.944;11.776;2022-08-20T03:42:49;94647.78;;;24.05;27.05
21826;BME280;11075;47.944;11.776;2022-08-20T03:45:19;94630.00;;;22.44;29.41
21826;BME280;11075;47.944;11.776;2022-08-20T03:47:47;94640.00;;;23.25;27.89
21826;BME280;11075;47.944;11.776;2022-08-20T03:50:14;94628.22;;;22.81;28.24
21826;BME280;11075;47.944;11.776;2022-08-20T03:52:49;94639.38;;;21.25;30.70
21826;BME280;11075;47.944;11.776;2022-08-20T03:55:16;94650.38;;;21.89;29.42
21826;BME280;11075;47.944;11.776;2022-08-20T03:57:48;94676.03;;;23.30;28.49
21826;BME280;11075;47.944;11.776;2022-08-20T04:00:23;94639.72;;;21.95;29.22
21826;BME280;11075;47.944;11.776;2022-08-20T04:02:50;94660.41;;;24.03;27.08
21826;BME280;11075;47.944;11.776;2022-08-20T04:05:17;94675.13;;;24.49;26.30
21826;BME280;11075;47.944;11.776;2022-08-20T04:07:44;94646.53;;;23.11;28.26
21826;BME280;11075;47.944;11.776;2022-08-20T04:10:11;94660.69;;;23.72;27.18
21826;BME280;11075;47.944;11.776;2022-08-20T04:12:38;94681.53;;;25.11;25.90
21826;BME280;11075;47.944;11.776;2022-08-20T04:15:17;94626.53;;;22.13;29.14
21826;BME280;11075;47.944;11.776;2022-08-20T04:17:47;94653.88;;;23.97;27.01
21826;BME280;11075;47.944;11.776;2022-08-20T04:20:19;94661.88;;;24.27;26.61
21826;BME280;11075;47.944;11.776;2022-08-20T04:22:49;94665.06;;;24.06;27.06
21826;BME280;11075;47.944;11.776;2022-08-20T04:25:26;94645.63;;;22.71;29.09
21826;BME280;11075;47.944;11.776;2022-08-20T04:27:59;94667.06;;;24.74;26.14
21826;BME280;11075;47.944;11.776;2022-08-20T04:30:26;94642.75;;;22.31;29.39
21826;BME280;11075;47.944;11.776;2022-08-20T04:32:54;94659.50;;;22.87;28.32
21826;BME280;11075;47.944;11.776;2022-08-20T04:35:22;94651.53;;;22.69;29.13
21826;BME280;11075;47.944;11.776;2022-08-20T04:38:01;94671.56;;;24.16;27.07
21826;BME280;11075;47.944;11.776;2022-08-20T04:40:29;94672.19;;;24.39;26.46
21826;BME280;11075;47.944;11.776;2022-08-20T04:43:14;94659.25;;;23.01;28.55
21826;BME280;11075;47.944;11.776;2022-08-20T04:45:42;94677.63;;;22.58;28.72
21826;BME280;11075;47.944;11.776;2022-08-20T04:48:10;94661.06;;;21.09;31.38
21826;BME280;11075;47.944;11.776;2022-08-20T04:50:42;94666.00;;;21.24;31.10
21826;BME280;11075;47.944;11.776;2022-08-20T04:53:12;94673.53;;;24.15;26.92
21826;BME280;11075;47.944;11.776;2022-08-20T04:55:41;94675.31;;;23.46;28.08
21826;BME280;11075;47.944;11.776;2022-08-20T04:58:56;94678.34;;;23.08;28.60
21826;BME280;11075;47.944;11.776;2022-08-20T05:01:09;94678.84;;;23.27;27.93
21826;BME280;11075;47.944;11.776;2022-08-20T05:03:37;94682.31;;;23.70;27.58
21826;BME280;11075;47.944;11.776;2022-08-20T05:06:07;94664.63;;;23.08;28.27
21826;BME280;11075;47.944;11.776;2022-08-20T05:08:35;94674.31;;;22.43;29.18
21826;BME280;11075;47.944;11.776;2022-08-20T05:11:05;94688.19;;;22.59;28.93
21826;BME280;11075;47.944;11.776;2022-08-20T05:13:52;94699.53;;;24.30;26.59
21826;BME280;11075;47.944;11.776;2022-08-20T05:16:20;94689.81;;;23.70;27.81
21826;BME280;11075;47.944;11.776;2022-08-20T05:18:47;94652.78;;;21.53;30.02
21826;BME280;11075;47.944;11.776;2022-08-20T05:21:19;94674.59;;;21.60;29.72
21826;BME280;11075;47.944;11.776;2022-08-20T05:23:46;94709.66;;;24.17;27.04
21826;BME280;11075;47.944;11.776;2022-08-20T05:26:15;94689.28;;;23.12;28.12
21826;BME280;11075;47.944;11.776;2022-08-20T05:28:42;94728.44;;;25.68;25.28
21826;BME280;11075;47.944;11.776;2022-08-20T05:31:24;94704.47;;;23.83;27.38
21826;BME280;11075;47.944;11.776;2022-08-20T05:34:04;94680.28;;;21.05;31.31
21826;BME280;11075;47.944;11.776;2022-08-20T05:36:38;94712.72;;;24.55;26.68
21826;BME280;11075;47.944;11.776;2022-08-20T05:39:06;94700.34;;;23.32;27.85
21826;BME280;11075;47.944;11.776;2022-08-20T05:41:34;94706.63;;;23.92;27.27
21826;BME280;11075;47.944;11.776;2022-08-20T05:44:02;94710.16;;;24.48;26.70
21826;BME280;11075;47.944;11.776;2022-08-20T05:46:30;94699.56;;;23.51;27.71
21826;BME280;11075;47.944;11.776;2022-08-20T05:48:58;94678.16;;;21.91;29.86
21826;BME280;11075;47.944;11.776;2022-08-20T05:51:28;94679.47;;;21.46;30.31
21826;BME280;11075;47.944;11.776;2022-08-20T05:53:55;94713.66;;;23.33;27.97
21826;BME280;11075;47.944;11.776;2022-08-20T05:56:24;94730.84;;;25.21;25.87
21826;BME280;11075;47.944;11.776;2022-08-20T05:58:53;94717.44;;;23.82;27.62
21826;BME280;11075;47.944;11.776;2022-08-20T06:01:21;94716.28;;;24.00;27.31
21826;BME280;11075;47.944;11.776;2022-08-20T06:03:47;94716.31;;;24.72;26.40
21826;BME280;11075;47.944;11.776;2022-08-20T06:06:33;94700.06;;;23.46;27.81
21826;BME280;11075;47.944;11.776;2022-08-20T06:09:14;94710.03;;;24.35;27.02
21826;BME280;11075;47.944;11.776;2022-08-20T06:11:41;94731.88;;;25.72;25.52
21826;BME280;11075;47.944;11.776;2022-08-20T06:14:08;94723.41;;;24.17;27.41
21826;BME280;11075;47.944;11.776;2022-08-20T06:16:35;94734.03;;;25.20;26.15
21826;BME280;11075;47.944;11.776;2022-08-20T06:19:03;94738.34;;;24.36;27.47
21826;BME280;11075;47.944;11.776;2022-08-20T06:21:30;94728.69;;;24.80;26.71
21826;BME280;11075;47.944;11.776;2022-08-20T06:23:58;94733.28;;;22.85;29.19
21826;BME280;11075;47.944;11.776;2022-08-20T06:26:27;94745.13;;;24.31;27.34
21826;BME280;11075;47.944;11.776;2022-08-20T06:29:00;94766.72;;;25.66;25.68
21826;BME280;11075;47.944;11.776;2022-08-20T06:31:27;94748.19;;;24.53;26.85
21826;BME280;11075;47.944;11.776;2022-08-20T06:33:54;94768.66;;;26.78;24.36
21826;BME280;11075;47.944;11.776;2022-08-20T06:36:21;94740.94;;;25.12;26.14
21826;BME280;11075;47.944;11.776;2022-08-20T06:38:48;94738.16;;;25.28;25.79
21826;BME280;11075;47.944;11.776;2022-08-20T06:41:15;94748.28;;;25.63;25.81
21826;BME280;11075;47.944;11.776;2022-08-20T06:43:42;94742.00;;;22.53;29.87
21826;BME280;11075;47.944;11.776;2022-08-20T06:46:09;94759.69;;;25.33;26.35
21826;BME280;11075;47.944;11.776;2022-08-20T06:48:36;94747.66;;;25.11;26.40
21826;BME280;11075;47.944;11.776;2022-08-20T06:51:03;94739.56;;;23.95;27.81
21826;BME280;11075;47.944;11.776;2022-08-20T06:53:32;94742.53;;;23.85;28.17
21826;BME280;11075;47.944;11.776;2022-08-20T06:55:59;94747.81;;;23.95;27.67
21826;BME280;11075;47.944;11.776;2022-08-20T06:58:26;94741.81;;;23.61;28.13
21826;BME280;11075;47.944;11.776;2022-08-20T07:01:08;94762.09;;;24.46;27.41
21826;BME280;11075;47.944;11.776;2022-08-20T07:03:41;94758.56;;;24.98;26.79
21826;BME280;11075;47.944;11.776;2022-08-20T07:06:23;94755.94;;;25.11;26.29
21826;BME280;11075;47.944;11.776;2022-08-20T07:08:52;94771.06;;;25.19;26.42
21826;BME280;11075;47.944;11.776;2022-08-20T07:11:19;94765.34;;;25.58;25.66
21826;BME280;11075;47.944;11.776;2022-08-20T07:13:54;94736.84;;;23.32;28.87
21826;BME280;11075;47.944;11.776;2022-08-20T07:16:22;94781.84;;;26.32;25.18
21826;BME280;11075;47.944;11.776;2022-08-20T07:18:49;94755.94;;;25.72;25.66
21826;BME280;11075;47.944;11.776;2022-08-20T07:21:16;94750.53;;;26.10;25.36
21826;BME280;11075;47.944;11.776;2022-08-20T07:23:43;94746.69;;;23.93;27.96
21826;BME280;11075;47.944;11.776;2022-08-20T07:26:10;94734.50;;;23.31;28.71
21826;BME280;11075;47.944;11.776;2022-08-20T07:28:38;94753.25;;;23.99;27.70
21826;BME280;11075;47.944;11.776;2022-08-20T07:31:05;94775.38;;;25.36;26.11
21826;BME280;11075;47.944;11.776;2022-08-20T07:33:52;94767.06;;;25.68;26.10
21826;BME280;11075;47.944;11.776;2022-08-20T07:36:19;94761.78;;;24.24;26.97
21826;BME280;11075;47.944;11.776;2022-08-20T07:38:46;94780.19;;;25.93;25.72
21826;BME280;11075;47.944;11.776;2022-08-20T07:41:13;94769.75;;;25.39;26.20
21826;BME280;11075;47.944;11.776;2022-08-20T07:43:42;94768.19;;;24.73;26.99
21826;BME280;11075;47.944;11.776;2022-08-20T07:46:13;94764.94;;;25.27;26.20
21826;BME280;11075;47.944;11.776;2022-08-20T07:48:43;94794.94;;;25.87;25.30
21826;BME280;11075;47.944;11.776;2022-08-20T07:51:17;94786.66;;;25.25;25.92
21826;BME280;11075;47.944;11.776;2022-08-20T07:53:45;94795.31;;;25.72;26.09
21826;BME280;11075;47.944;11.776;2022-08-20T07:56:18;94801.56;;;26.47;25.17
21826;BME280;11075;47.944;11.776;2022-08-20T07:58:51;94788.97;;;25.88;25.91
21826;BME280;11075;47.944;11.776;2022-08-20T08:01:23;94827.88;;;28.44;22.66
21826;BME280;11075;47.944;11.776;2022-08-20T08:03:55;94813.16;;;27.44;24.21
21826;BME280;11075;47.944;11.776;2022-08-20T08:06:23;94806.88;;;26.67;25.11
21826;BME280;11075;47.944;11.776;2022-08-20T08:09:22;94803.66;;;25.85;25.28
21826;BME280;11075;47.944;11.776;2022-08-20T08:11:49;94820.47;;;27.85;23.38
21826;BME280;11075;47.944;11.776;2022-08-20T08:14:22;94765.69;;;25.60;26.03
21826;BME280;11075;47.944;11.776;2022-08-20T08:16:56;94791.78;;;25.72;26.57
21826;BME280;11075;47.944;11.776;2022-08-20T08:19:25;94786.66;;;24.21;27.63
21826;BME280;11075;47.944;11.776;2022-08-20T08:21:54;94815.63;;;25.95;26.12
21826;BME280;11075;47.944;11.776;2022-08-20T08:24:24;94776.34;;;22.92;29.34
21826;BME280;11075;47.944;11.776;2022-08-20T08:26:54;94801.25;;;24.18;27.87
21826;BME280;11075;47.944;11.776;2022-08-20T08:29:26;94801.06;;;25.17;26.81
21826;BME280;11075;47.944;11.776;2022-08-20T08:31:53;94816.47;;;28.20;23.63
21826;BME280;11075;47.944;11.776;2022-08-20T08:34:19;94796.25;;;27.42;24.58
21826;BME280;11075;47.944;11.776;2022-08-20T08:36:47;94794.63;;;27.06;25.04
21826;BME280;11075;47.944;11.776;2022-08-20T08:39:17;94808.84;;;26.12;25.62
21826;BME280;11075;47.944;11.776;2022-08-20T08:41:47;94799.28;;;25.71;26.17
21826;BME280;11075;47.944;11.776;2022-08-20T08:44:25;94797.97;;;25.76;26.31
21826;BME280;11075;47.944;11.776;2022-08-20T08:46:57;94807.63;;;26.42;25.58
21826;BME280;11075;47.944;11.776;2022-08-20T08:49:28;94800.06;;;24.91;27.18
21826;BME280;11075;47.944;11.776;2022-08-20T08:52:08;94813.06;;;24.54;27.47
21826;BME280;11075;47.944;11.776;2022-08-20T08:54:41;94802.47;;;24.53;27.63
21826;BME280;11075;47.944;11.776;2022-08-20T08:57:11;94811.81;;;25.89;25.80
21826;BME280;11075;47.944;11.776;2022-08-20T08:59:38;94794.66;;;25.36;26.72
21826;BME280;11075;47.944;11.776;2022-08-20T09:02:29;94806.06;;;25.83;26.36
21826;BME280;11075;47.944;11.776;2022-08-20T09:04:58;94815.44;;;26.02;25.69
21826;BME280;11075;47.944;11.776;2022-08-20T09:07:30;94811.59;;;26.12;26.07
21826;BME280;11075;47.944;11.776;2022-08-20T09:10:00;94797.81;;;24.69;28.06
21826;BME280;11075;47.944;11.776;2022-08-20T09:12:28;94827.31;;;26.57;25.52
21826;BME280;11075;47.944;11.776;2022-08-20T09:14:55;94822.41;;;26.35;26.07
21826;BME280;11075;47.944;11.776;2022-08-20T09:17:22;94811.72;;;25.31;26.78
21826;BME280;11075;47.944;11.776;2022-08-20T09:19:49;94841.50;;;27.10;24.43
21826;BME280;11075;47.944;11.776;2022-08-20T09:22:20;94809.28;;;25.00;27.21
21826;BME280;11075;47.944;11.776;2022-08-20T09:24:48;94799.63;;;23.34;28.60
21826;BME280;11075;47.944;11.776;2022-08-20T09:27:17;94835.03;;;25.91;26.13
21826;BME280;11075;47.944;11.776;2022-08-20T09:29:44;94821.97;;;25.63;26.67
21826;BME280;11075;47.944;11.776;2022-08-20T09:32:22;94822.16;;;25.39;26.72
21826;BME280;11075;47.944;11.776;2022-08-20T09:34:53;94827.75;;;25.52;26.41
21826;BME280;11075;47.944;11.776;2022-08-20T09:37:27;94820.38;;;24.25;27.97
21826;BME280;11075;47.944;11.776;2022-08-20T09:40:03;94825.59;;;24.39;27.98
21826;BME280;11075;47.944;11.776;2022-08-20T09:42:32;94836.91;;;24.81;28.08
21826;BME280;11075;47.944;11.776;2022-08-20T09:45:07;94826.25;;;24.99;27.46
21826;BME280;11075;47.944;11.776;2022-08-20T09:47:39;94821.91;;;25.18;27.47
21826;BME280;11075;47.944;11.776;2022-08-20T09:50:23;94822.91;;;24.35;28.12
21826;BME280;11075;47.944;11.776;2022-08-20T09:52:52;94818.50;;;24.58;27.63
21826;BME280;11075;47.944;11.776;2022-08-20T09:55:22;94830.94;;;26.54;25.77
21826;BME280;11075;47.944;11.776;2022-08-20T09:57:50;94842.94;;;28.21;24.09
21826;BME280;11075;47.944;11.776;2022-08-20T10:00:18;94823.78;;;26.27;26.34
21826;BME280;11075;47.944;11.776;2022-08-20T10:02:46;94817.03;;;25.70;26.89
21826;BME280;11075;47.944;11.776;2022-08-20T10:05:13;94824.00;;;26.20;25.90
21826;BME280;11075;47.944;11.776;2022-08-20T10:07:41;94829.09;;;27.40;25.34
21826;BME280;11075;47.944;11.776;2022-08-20T10:10:10;94812.41;;;26.25;25.93
21826;BME280;11075;47.944;11.776;2022-08-20T10:12:37;94821.59;;;26.89;25.62
21826;BME280;11075;47.944;11.776;2022-08-20T10:15:05;94824.81;;;25.27;27.10
21826;BME280;11075;47.944;11.776;2022-08-20T10:17:36;94823.59;;;23.33;28.93
21826;BME280;11075;47.944;11.776;2022-08-20T10:20:04;94819.44;;;24.87;27.81
21826;BME280;11075;47.944;11.776;2022-08-20T10:22:32;94825.66;;;25.72;26.73
21826;BME280;11075;47.944;11.776;2022-08-20T10:24:59;94833.97;;;28.39;24.15
21826;BME280;11075;47.944;11.776;2022-08-20T10:27:26;94821.16;;;27.29;25.42
21826;BME280;11075;47.944;11.776;2022-08-20T10:29:53;94805.03;;;25.77;26.67
21826;BME280;11075;47.944;11.776;2022-08-20T10:32:20;94824.59;;;26.82;26.10
21826;BME280;11075;47.944;11.776;2022-08-20T10:34:47;94817.34;;;26.59;25.86
21826;BME280;11075;47.944;11.776;2022-08-20T10:37:17;94824.06;;;27.60;24.80
21826;BME280;11075;47.944;11.776;2022-08-20T10:39:44;94821.03;;;28.58;24.07
21826;BME280;11075;47.944;11.776;2022-08-20T10:42:12;94815.72;;;26.75;25.78
21826;BME280;11075;47.944;11.776;2022-08-20T10:44:39;94806.84;;;26.42;26.71
21826;BME280;11075;47.944;11.776;2022-08-20T10:47:32;94832.13;;;28.58;23.80
21826;BME280;11075;47.944;11.776;2022-08-20T10:50:02;94828.88;;;29.22;22.78
21826;BME280;11075;47.944;11.776;2022-08-20T10:52:29;94805.06;;;28.62;23.96
21826;BME280;11075;47.944;11.776;2022-08-20T10:54:56;94812.44;;;29.36;23.80
21826;BME280;11075;47.944;11.776;2022-08-20T10:57:26;94820.13;;;28.39;23.89
21826;BME280;11075;47.944;11.776;2022-08-20T10:59:55;94822.22;;;28.48;24.21
21826;BME280;11075;47.944;11.776;2022-08-20T11:02:23;94832.53;;;27.91;24.94
21826;BME280;11075;47.944;11.776;2022-08-20T11:04:51;94798.47;;;26.16;26.17
21826;BME280;11075;47.944;11.776;2022-08-20T11:07:33;94807.13;;;27.23;25.28
21826;BME280;11075;47.944;11.776;2022-08-20T11:10:22;94802.78;;;27.35;25.21
21826;BME280;11075;47.944;11.776;2022-08-20T11:12:49;94818.50;;;27.13;25.56
21826;BME280;11075;47.944;11.776;2022-08-20T11:15:16;94805.16;;;26.02;26.66
21826;BME280;11075;47.944;11.776;2022-08-20T11:17:44;94806.06;;;27.55;25.12
21826;BME280;11075;47.944;11.776;2022-08-20T11:20:13;94814.53;;;29.14;23.74
21826;BME280;11075;47.944;11.776;2022-08-20T11:22:40;94802.59;;;29.44;23.78
21826;BME280;11075;47.944;11.776;2022-08-20T11:25:07;94809.69;;;29.45;23.05
21826;BME280;11075;47.944;11.776;2022-08-20T11:27:38;94795.25;;;29.10;24.28
21826;BME280;11075;47.944;11.776;2022-08-20T11:30:08;94761.25;;;26.08;26.69
21826;BME280;11075;47.944;11.776;2022-08-20T11:32:36;94797.91;;;27.86;25.47
21826;BME280;11075;47.944;11.776;2022-08-20T11:35:03;94804.91;;;27.31;25.29
21826;BME280;11075;47.944;11.776;2022-08-20T11:37:52;94805.53;;;28.70;24.11
21826;BME280;11075;47.944;11.776;2022-08-20T11:40:20;94804.78;;;28.69;24.06
21826;BME280;11075;47.944;11.776;2022-08-20T11:42:47;94810.38;;;29.18;23.21
21826;BME280;11075;47.944;11.776;2022-08-20T11:45:34;94800.72;;;27.74;24.36
21826;BME280;11075;47.944;11.776;2022-08-20T11:48:04;94793.53;;;27.04;25.60
21826;BME280;11075;47.944;11.776;2022-08-20T11:50:31;94789.34;;;26.32;25.96
21826;BME280;11075;47.944;11.776;2022-08-20T11:52:58;94816.19;;;28.71;23.64
21826;BME280;11075;47.944;11.776;2022-08-20T11:55:27;94802.41;;;27.93;24.75
21826;BME280;11075;47.944;11.776;2022-08-20T11:57:57;94789.84;;;26.14;26.92
21826;BME280;11075;47.944;11.776;2022-08-20T12:00:28;94804.34;;;27.36;25.24
21826;BME280;11075;47.944;11.776;2022-08-20T12:03:00;94818.75;;;28.87;23.97
21826;BME280;11075;47.944;11.776;2022-08-20T12:05:28;94816.31;;;28.68;24.12
21826;BME280;11075;47.944;11.776;2022-08-20T12:08:00;94814.78;;;28.01;24.40
21826;BME280;11075;47.944;11.776;2022-08-20T12:10:28;94805.06;;;27.62;25.61
21826;BME280;11075;47.944;11.776;2022-08-20T12:12:55;94782.25;;;25.44;27.15
21826;BME280;11075;47.944;11.776;2022-08-20T12:15:23;94813.91;;;27.57;25.44
21826;BME280;11075;47.944;11.776;2022-08-20T12:17:52;94793.38;;;25.86;26.23
21826;BME280;11075;47.944;11.776;2022-08-20T12:20:19;94831.75;;;28.47;23.92
21826;BME280;11075;47.944;11.776;2022-08-20T12:22:46;94832.34;;;29.04;22.92
21826;BME280;11075;47.944;11.776;2022-08-20T12:25:13;94824.31;;;27.66;23.49
21826;BME280;11075;47.944;11.776;2022-08-20T12:27:41;94820.84;;;28.52;23.59
21826;BME280;11075;47.944;11.776;2022-08-20T12:30:11;94812.44;;;29.36;23.39
21826;BME280;11075;47.944;11.776;2022-08-20T12:32:39;94807.63;;;28.35;23.90
21826;BME280;11075;47.944;11.776;2022-08-20T12:35:07;94812.47;;;29.45;22.80
21826;BME280;11075;47.944;11.776;2022-08-20T12:37:35;94795.38;;;25.85;26.58
21826;BME280;11075;47.944;11.776;2022-08-20T12:40:06;94792.28;;;26.66;26.00
21826;BME280;11075;47.944;11.776;2022-08-20T12:42:33;94792.41;;;27.26;25.58
21826;BME280;11075;47.944;11.776;2022-08-20T12:45:00;94816.22;;;29.70;23.00
21826;BME280;11075;47.944;11.776;2022-08-20T12:47:30;94777.00;;;28.07;25.09
21826;BME280;11075;47.944;11.776;2022-08-20T12:50:06;94821.38;;;30.77;22.00
21826;BME280;11075;47.944;11.776;2022-08-20T12:52:33;94817.66;;;29.25;22.92
21826;BME280;11075;47.944;11.776;2022-08-20T12:55:01;94811.28;;;29.65;22.58
21826;BME280;11075;47.944;11.776;2022-08-20T12:57:56;94782.44;;;27.98;25.33
21826;BME280;11075;47.944;11.776;2022-08-20T13:00:36;94786.81;;;27.65;25.75
21826;BME280;11075;47.944;11.776;2022-08-20T13:03:05;94792.84;;;26.99;25.12
21826;BME280;11075;47.944;11.776;2022-08-20T13:05:34;94804.13;;;27.78;24.24
21826;BME280;11075;47.944;11.776;2022-08-20T13:08:01;94789.88;;;28.76;24.08
21826;BME280;11075;47.944;11.776;2022-08-20T13:10:32;94791.66;;;28.39;24.48
21826;BME280;11075;47.944;11.776;2022-08-20T13:13:00;94811.44;;;29.79;22.36